Time;durP1;ratioP1;P1;durP2;ratioP2;P2;SDS_P1;SDS_P2;PMS_P1;PMS_P2;Temp;Humidity;BMP_temperature;BMP_pressure;BME280_temperature;BME280_humidity;BME280_pressure;Samples;Min_cycle;Max_cycle;Signal;HPM_P1;HPM_P2
2020/12/22 00:01:28;;;;;;;3.70;1.07;;;;;;;14.28;100.00;100574.23;1799632;77;936780;-79
2020/12/22 00:03:58;;;;;;;3.62;1.00;;;;;;;14.29;100.00;100571.11;1787830;78;936836;-79
2020/12/22 00:06:28;;;;;;;4.53;1.03;;;;;;;14.32;100.00;100585.03;1799604;77;936874;-79
2020/12/22 00:08:58;;;;;;;3.70;1.30;;;;;;;14.34;100.00;100583.56;1787799;78;936535;-78
2020/12/22 00:11:29;;;;;;;2.83;1.20;;;;;;;14.36;100.00;100595.30;1799519;77;936688;-79
2020/12/22 00:13:59;;;;;;;3.55;1.50;;;;;;;14.36;100.00;100595.30;1787796;77;936609;-79
2020/12/22 00:16:36;;;;;;;5.93;1.60;;;;;;;14.38;100.00;100601.95;1799475;77;936676;-79
2020/12/22 00:19:06;;;;;;;3.17;1.05;;;;;;;14.36;100.00;100605.64;1787827;78;936638;-79
2020/12/22 00:21:37;;;;;;;4.50;1.70;;;;;;;14.33;100.00;100607.08;1799537;77;936618;-79
2020/12/22 00:24:07;;;;;;;3.20;0.90;;;;;;;14.36;100.00;100602.85;1787792;78;936597;-79
2020/12/22 00:26:36;;;;;;;4.17;1.33;;;;;;;14.37;100.00;100605.91;1799600;78;936724;-79
2020/12/22 00:29:06;;;;;;;3.90;1.20;;;;;;;14.35;100.00;100603.42;1787809;78;936697;-80
2020/12/22 00:31:40;;;;;;;2.17;0.70;;;;;;;14.39;100.00;100604.44;1799597;78;936663;-80
2020/12/22 00:34:12;;;;;;;4.30;1.13;;;;;;;14.37;100.00;100604.51;1787799;77;937214;-80
2020/12/22 00:36:42;;;;;;;6.50;1.67;;;;;;;14.37;100.00;100608.70;1799516;77;934815;-79
2020/12/22 00:39:14;;;;;;;4.13;1.47;;;;;;;14.37;100.00;100610.92;1787663;77;936750;-79
2020/12/22 00:41:44;;;;;;;2.93;1.17;;;;;;;14.38;100.00;100606.97;1795995;78;934677;-80
2020/12/22 00:44:16;;;;;;;3.30;0.93;;;;;;;14.39;100.00;100603.03;1756618;78;936606;-79
2020/12/22 00:46:48;;;;;;;4.33;1.43;;;;;;;14.37;100.00;100611.50;1772323;78;934816;-79
2020/12/22 00:49:19;;;;;;;3.33;1.63;;;;;;;14.38;100.00;100611.16;1772272;79;936575;-79
2020/12/22 00:51:49;;;;;;;3.13;1.20;;;;;;;14.42;100.00;100611.34;1772333;78;934817;-79
2020/12/22 00:54:18;;;;;;;3.90;0.93;;;;;;;14.42;100.00;100607.98;1772332;80;935630;-78
2020/12/22 00:56:52;;;;;;;3.50;1.10;;;;;;;14.40;100.00;100617.27;1772268;78;934745;-79
2020/12/22 00:59:23;;;;;;;6.83;2.00;;;;;;;14.36;100.00;100620.45;1772262;78;936579;-79
2020/12/22 01:01:55;;;;;;;6.30;1.53;;;;;;;14.38;100.00;100618.14;1760725;80;937075;-80
2020/12/22 01:04:25;;;;;;;5.80;1.53;;;;;;;14.39;100.00;100624.56;1778180;78;936596;-79
2020/12/22 01:06:55;;;;;;;5.87;1.20;;;;;;;14.38;100.00;100621.50;1787675;77;936638;-79
2020/12/22 01:09:27;;;;;;;3.60;0.93;;;;;;;14.41;100.00;100627.88;1799618;78;936586;-80
2020/12/22 01:11:59;;;;;;;3.00;1.03;;;;;;;14.38;100.00;100619.55;1787653;77;936783;-80
2020/12/22 01:14:29;;;;;;;4.53;1.07;;;;;;;14.45;100.00;100626.11;1799505;77;936633;-79
2020/12/22 01:16:59;;;;;;;5.17;1.27;;;;;;;14.42;100.00;100621.95;1787765;78;936553;-79
2020/12/22 01:19:29;;;;;;;2.63;0.90;;;;;;;14.42;100.00;100628.94;1799480;77;936531;-79
2020/12/22 01:21:59;;;;;;;3.27;0.90;;;;;;;14.44;100.00;100637.85;1787766;77;935512;-79
2020/12/22 01:24:29;;;;;;;2.37;1.07;;;;;;;14.40;100.00;100646.61;1799492;77;936675;-79
2020/12/22 01:26:59;;;;;;;4.28;1.10;;;;;;;14.43;100.00;100644.58;1787745;77;936843;-79
2020/12/22 01:29:29;;;;;;;5.33;1.30;;;;;;;14.42;100.00;100641.52;1799550;77;936574;-78
2020/12/22 01:32:00;;;;;;;4.47;1.10;;;;;;;14.42;100.00;100640.69;1787583;77;935766;-78
2020/12/22 01:34:30;;;;;;;4.50;1.03;;;;;;;14.44;100.00;100649.03;1799502;77;936572;-78
2020/12/22 01:37:00;;;;;;;6.05;1.32;;;;;;;14.41;100.00;100644.65;1787797;78;936628;-79
2020/12/22 01:39:30;;;;;;;3.20;1.30;;;;;;;14.36;100.00;100653.15;1799597;78;936660;-79
2020/12/22 01:41:59;;;;;;;4.37;1.07;;;;;;;14.29;100.00;100656.33;1787593;77;936681;-79
2020/12/22 01:44:29;;;;;;;3.47;1.30;;;;;;;14.23;100.00;100659.56;1799561;77;936654;-78
2020/12/22 01:46:59;;;;;;;3.87;0.90;;;;;;;14.22;100.00;100662.92;1787887;77;936687;-79
2020/12/22 01:49:29;;;;;;;3.40;1.00;;;;;;;14.25;100.00;100665.08;1799529;77;935299;-79
2020/12/22 01:52:00;;;;;;;4.20;1.30;;;;;;;14.24;100.00;100667.64;1780545;77;936606;-79
2020/12/22 01:54:31;;;;;;;3.00;0.97;;;;;;;14.25;100.00;100659.49;1799535;78;936696;-79
2020/12/22 01:57:10;;;;;;;4.43;1.43;;;;;;;14.16;100.00;100662.80;1787641;77;936719;-79
2020/12/22 01:59:40;;;;;;;2.93;1.00;;;;;;;14.10;100.00;100659.28;1799462;78;934539;-79
2020/12/22 02:02:10;;;;;;;4.50;0.97;;;;;;;14.15;100.00;100679.30;1787797;78;936540;-78
2020/12/22 02:04:40;;;;;;;5.13;0.97;;;;;;;14.12;100.00;100672.35;1799499;77;934662;-79
2020/12/22 02:07:13;;;;;;;3.07;0.70;;;;;;;14.05;100.00;100676.72;1787710;78;936527;-78
2020/12/22 02:09:45;;;;;;;3.53;1.20;;;;;;;14.06;100.00;100679.21;1799542;77;934439;-78
2020/12/22 02:12:15;;;;;;;3.23;0.93;;;;;;;14.09;100.00;100678.58;1787666;77;936557;-79
2020/12/22 02:14:45;;;;;;;4.70;1.40;;;;;;;13.99;100.00;100678.78;1799500;79;934663;-78
2020/12/22 02:17:16;;;;;;;3.23;0.77;;;;;;;14.04;100.00;100683.44;1787634;78;936572;-78
2020/12/22 02:19:46;;;;;;;2.80;0.93;;;;;;;13.98;100.00;100688.33;1799401;77;934573;-79
2020/12/22 02:22:16;;;;;;;2.73;1.00;;;;;;;13.96;100.00;100685.00;1787587;77;936596;-78
2020/12/22 02:24:46;;;;;;;4.70;1.10;;;;;;;14.00;100.00;100686.03;1799435;77;934745;-79
2020/12/22 02:27:16;;;;;;;2.77;1.00;;;;;;;13.98;100.00;100681.34;1787702;77;936648;-78
2020/12/22 02:29:46;;;;;;;3.27;1.10;;;;;;;13.92;100.00;100683.14;1799409;77;934673;-79
2020/12/22 02:32:15;;;;;;;4.33;0.90;;;;;;;13.96;100.00;100691.16;1787710;78;936572;-78
2020/12/22 02:34:48;;;;;;;5.80;1.03;;;;;;;13.92;100.00;100702.69;1799514;78;934892;-78
2020/12/22 02:37:27;;;;;;;3.03;0.80;;;;;;;13.95;100.00;100707.64;1799825;77;935541;-79
2020/12/22 02:39:57;;;;;;;1.47;0.62;;;;;;;14.03;100.00;100710.53;1795613;77;935658;-79
2020/12/22 02:42:29;;;;;;;3.70;1.00;;;;;;;14.02;100.00;100715.88;1799511;78;935594;-79
2020/12/22 02:44:59;;;;;;;2.37;0.62;;;;;;;14.01;100.00;100706.41;1787701;78;935466;-80
2020/12/22 02:47:28;;;;;;;2.33;1.00;;;;;;;13.98;100.00;100711.23;1799368;78;935517;-81
2020/12/22 02:49:58;;;;;;;3.90;1.03;;;;;;;13.97;100.00;100713.76;1787663;78;935725;-81
2020/12/22 02:52:28;;;;;;;2.50;1.00;;;;;;;13.88;100.00;100715.05;1799362;77;935603;-80
2020/12/22 02:54:58;;;;;;;5.33;1.05;;;;;;;13.97;100.00;100731.91;1787684;78;937584;-80
2020/12/22 02:57:28;;;;;;;3.30;0.70;;;;;;;13.94;100.00;100729.75;1799511;78;935948;-80
2020/12/22 02:59:58;;;;;;;3.57;0.90;;;;;;;13.97;100.00;100732.73;1787752;78;938647;-80
2020/12/22 03:02:27;;;;;;;3.23;0.80;;;;;;;14.01;100.00;100749.70;1799452;77;935579;-80
2020/12/22 03:04:57;;;;;;;4.70;1.47;;;;;;;14.00;100.00;100746.64;1787609;78;935449;-80
2020/12/22 03:07:27;;;;;;;2.60;0.70;;;;;;;14.02;100.00;100762.53;1799422;79;935762;-80
2020/12/22 03:09:57;;;;;;;4.40;0.93;;;;;;;14.02;100.00;100761.14;1787494;77;935584;-80
2020/12/22 03:12:27;;;;;;;2.93;1.00;;;;;;;14.03;100.00;100763.59;1799414;77;936595;-80
2020/12/22 03:14:57;;;;;;;6.08;1.30;;;;;;;14.03;100.00;100760.00;1787584;78;935719;-80
2020/12/22 03:17:27;;;;;;;5.30;1.03;;;;;;;14.01;100.00;100791.03;1799503;77;935975;-79
2020/12/22 03:19:57;;;;;;;1.30;0.57;;;;;;;13.98;100.00;100781.05;1787575;78;935489;-78
2020/12/22 03:22:27;;;;;;;4.73;0.90;;;;;;;13.99;100.00;100780.72;1799408;77;935509;-79
2020/12/22 03:24:57;;;;;;;3.30;0.80;;;;;;;13.98;100.00;100776.86;1787654;77;935848;-78
2020/12/22 03:27:27;;;;;;;3.23;0.60;;;;;;;13.93;100.00;100784.77;1799432;77;935513;-78
2020/12/22 03:30:00;;;;;;;3.40;0.93;;;;;;;13.88;100.00;100800.22;1787545;77;935672;-78
2020/12/22 03:32:34;;;;;;;1.47;0.47;;;;;;;13.95;100.00;100792.81;1799401;77;935511;-78
2020/12/22 03:35:08;;;;;;;2.77;0.57;;;;;;;13.96;100.00;100787.50;1787496;78;937627;-78
2020/12/22 03:37:38;;;;;;;0.73;0.40;;;;;;;13.97;100.00;100796.14;1799330;77;933689;-78
2020/12/22 03:40:12;;;;;;;4.15;0.88;;;;;;;13.97;100.00;100794.18;1787566;78;936563;-79
2020/12/22 03:42:42;;;;;;;1.47;0.60;;;;;;;13.97;100.00;100798.93;1772315;78;934976;-78
2020/12/22 03:45:12;;;;;;;1.75;0.50;;;;;;;13.95;100.00;100803.42;1760597;78;935574;-78
2020/12/22 03:47:42;;;;;;;1.77;0.77;;;;;;;13.96;100.00;100798.66;1772284;78;934644;-78
2020/12/22 03:50:12;;;;;;;1.30;0.50;;;;;;;13.95;100.00;100805.38;1760554;78;936706;-79
2020/12/22 03:52:41;;;;;;;1.73;0.40;;;;;;;13.92;100.00;100809.63;1772322;80;934682;-79
2020/12/22 03:55:11;;;;;;;1.67;0.50;;;;;;;13.92;100.00;100807.41;1760540;80;936140;-79
2020/12/22 03:57:41;;;;;;;1.30;0.50;;;;;;;13.92;100.00;100808.80;1772326;78;934728;-79
2020/12/22 04:00:14;;;;;;;1.37;0.30;;;;;;;13.96;100.00;100800.89;1760659;80;936633;-78
2020/12/22 04:02:44;;;;;;;1.50;0.30;;;;;;;13.89;100.00;100815.84;1772354;80;934480;-80
2020/12/22 04:05:14;;;;;;;1.13;0.40;;;;;;;13.86;100.00;100816.44;1760690;79;936748;-79
2020/12/22 04:07:44;;;;;;;0.60;0.40;;;;;;;13.84;100.00;100811.74;1772382;78;934716;-79
2020/12/22 04:10:14;;;;;;;1.60;0.30;;;;;;;13.87;100.00;100817.27;1760686;80;936766;-79
2020/12/22 04:12:44;;;;;;;1.80;0.40;;;;;;;13.81;100.00;100805.39;1772403;79;934706;-79
2020/12/22 04:15:14;;;;;;;0.70;0.60;;;;;;;13.77;100.00;100802.13;1760719;78;936734;-79
2020/12/22 04:17:43;;;;;;;1.83;0.60;;;;;;;13.68;100.00;100820.98;1772366;79;934696;-80
2020/12/22 04:20:13;;;;;;;0.67;0.30;;;;;;;13.74;100.00;100822.26;1760732;79;937140;-79
2020/12/22 04:22:43;;;;;;;1.90;0.40;;;;;;;13.71;100.00;100818.12;1772389;78;934886;-79
2020/12/22 04:25:13;;;;;;;0.50;0.30;;;;;;;13.74;100.00;100829.23;1760698;78;936739;-80
2020/12/22 04:27:43;;;;;;;1.55;0.65;;;;;;;13.80;100.00;100834.44;1772545;79;934793;-80
2020/12/22 04:30:13;;;;;;;1.03;0.20;;;;;;;13.80;100.00;100839.19;1760656;80;935637;-80
2020/12/22 04:32:43;;;;;;;1.13;0.50;;;;;;;13.78;100.00;100838.68;1772351;78;934915;-80
2020/12/22 04:35:13;;;;;;;1.47;0.40;;;;;;;13.77;100.00;100838.41;1760792;78;936630;-79
2020/12/22 04:37:42;;;;;;;0.70;0.33;;;;;;;13.78;100.00;100849.25;1772399;78;934723;-80
2020/12/22 04:40:12;;;;;;;1.13;0.30;;;;;;;13.79;100.00;100860.69;1760625;80;935983;-80
2020/12/22 04:42:43;;;;;;;2.23;0.50;;;;;;;13.77;100.00;100857.95;1772463;78;934730;-79
2020/12/22 04:45:13;;;;;;;1.97;0.50;;;;;;;13.74;100.00;100867.75;1760711;80;936743;-79
2020/12/22 04:47:43;;;;;;;0.90;0.30;;;;;;;13.71;100.00;100878.71;1772291;79;934766;-79
2020/12/22 04:50:15;;;;;;;1.97;0.50;;;;;;;13.68;100.00;100878.20;1760710;78;936650;-79
2020/12/22 04:52:48;;;;;;;0.83;0.40;;;;;;;13.65;100.00;100881.58;1772331;78;934676;-79
2020/12/22 04:55:20;;;;;;;1.00;0.50;;;;;;;13.67;100.00;100896.64;1772219;79;936782;-79
2020/12/22 04:57:54;;;;;;;0.80;0.40;;;;;;;13.64;100.00;100900.88;1772375;78;934707;-80
2020/12/22 05:00:24;;;;;;;1.60;0.40;;;;;;;13.66;100.00;100906.14;1772216;79;936676;-79
2020/12/22 05:02:56;;;;;;;1.47;0.30;;;;;;;13.63;100.00;100910.95;1760759;80;943405;-80
2020/12/22 05:05:26;;;;;;;0.97;0.60;;;;;;;13.65;100.00;100926.23;1772210;80;936580;-79
2020/12/22 05:07:56;;;;;;;1.70;0.40;;;;;;;13.67;100.00;100925.39;1760761;80;936794;-79
2020/12/22 05:10:26;;;;;;;1.20;0.60;;;;;;;13.61;100.00;100929.38;1772186;78;936645;-79
2020/12/22 05:12:56;;;;;;;1.70;0.70;;;;;;;13.59;100.00;100939.20;1760734;80;936745;-79
2020/12/22 05:15:28;;;;;;;1.90;0.50;;;;;;;13.53;100.00;100959.37;1772405;80;935581;-79
2020/12/22 05:18:00;;;;;;;0.88;0.37;;;;;;;13.51;100.00;100954.67;1760817;78;936723;-79
2020/12/22 05:20:30;;;;;;;2.23;0.40;;;;;;;13.52;100.00;100966.08;1772362;78;936749;-78
2020/12/22 05:23:00;;;;;;;1.73;0.33;;;;;;;13.48;100.00;100969.77;1760948;78;936672;-79
2020/12/22 05:25:30;;;;;;;3.07;0.50;;;;;;;13.45;100.00;100977.36;1772291;78;936959;-79
2020/12/22 05:28:01;;;;;;;1.90;0.50;;;;;;;13.42;100.00;100973.23;1760796;80;936892;-78
2020/12/22 05:30:32;;;;;;;1.43;0.50;;;;;;;13.37;100.00;100986.41;1772259;80;935754;-78
2020/12/22 05:33:04;;;;;;;1.05;0.40;;;;;;;13.30;100.00;100989.59;1760702;78;936608;-80
2020/12/22 05:35:39;;;;;;;1.03;0.40;;;;;;;13.29;100.00;100989.31;1772286;78;936599;-78
2020/12/22 05:38:09;;;;;;;0.83;0.50;;;;;;;13.29;100.00;100991.27;1760668;80;936652;-78
2020/12/22 05:40:42;;;;;;;1.93;0.50;;;;;;;13.26;100.00;101003.04;1772326;79;934694;-78
2020/12/22 05:43:13;;;;;;;1.07;0.50;;;;;;;13.24;100.00;101007.51;1760735;79;936825;-78
2020/12/22 05:45:42;;;;;;;1.27;0.40;;;;;;;13.16;100.00;101003.99;1772304;78;934824;-78
2020/12/22 05:48:16;;;;;;;2.20;0.50;;;;;;;13.10;100.00;101007.41;1760704;79;936637;-78
2020/12/22 05:50:51;;;;;;;1.23;0.40;;;;;;;13.09;100.00;101014.06;1772399;78;934655;-79
2020/12/22 05:53:27;;;;;;;1.60;0.60;;;;;;;13.05;100.00;101024.16;1772250;79;936631;-79
2020/12/22 05:55:58;;;;;;;0.97;0.50;;;;;;;13.02;100.00;101026.72;1760743;79;936643;-79
2020/12/22 05:58:31;;;;;;;1.60;0.50;;;;;;;12.97;100.00;101025.38;1769027;79;936633;-78
2020/12/22 06:01:02;;;;;;;1.00;0.40;;;;;;;12.95;100.00;101022.08;1760618;78;936621;-79
2020/12/22 06:03:34;;;;;;;2.30;0.70;;;;;;;12.92;100.00;101033.23;1772104;79;936897;-78
2020/12/22 06:06:06;;;;;;;1.42;0.50;;;;;;;12.89;100.00;101043.59;1760639;78;936739;-78
2020/12/22 06:08:37;;;;;;;0.90;0.50;;;;;;;12.82;100.00;101036.16;1772299;78;936565;-78
2020/12/22 06:11:09;;;;;;;2.10;0.65;;;;;;;12.81;100.00;101048.44;1760812;79;936784;-79
2020/12/22 06:13:38;;;;;;;2.17;0.63;;;;;;;12.83;100.00;101044.80;1772124;78;934655;-79
2020/12/22 06:16:17;;;;;;;1.52;0.60;;;;;;;12.81;100.00;101055.40;1760753;78;936766;-78
2020/12/22 06:18:50;;;;;;;0.80;0.60;;;;;;;12.79;100.00;101053.48;1772340;80;934647;-78
2020/12/22 06:21:21;;;;;;;1.67;0.50;;;;;;;12.83;100.00;101062.92;1772276;80;936598;-78
2020/12/22 06:23:54;;;;;;;3.30;0.80;;;;;;;12.82;100.00;101071.56;1766672;79;936806;-79
2020/12/22 06:26:24;;;;;;;2.20;0.90;;;;;;;12.77;100.00;101073.84;1786517;79;936497;-79
2020/12/22 06:28:54;;;;;;;2.47;0.70;;;;;;;12.82;100.00;101083.55;1787572;77;936815;-79
2020/12/22 06:31:25;;;;;;;1.97;0.43;;;;;;;12.82;100.00;101091.08;1799563;78;936606;-78
2020/12/22 06:33:55;;;;;;;2.30;0.80;;;;;;;12.83;100.00;101091.36;1787731;78;936776;-78
2020/12/22 06:36:25;;;;;;;3.07;0.60;;;;;;;12.81;100.00;101098.61;1799491;77;936498;-78
2020/12/22 06:38:57;;;;;;;1.00;0.60;;;;;;;12.83;100.00;101105.30;1787672;77;936557;-78
2020/12/22 06:41:46;;;;;;;1.63;0.70;;;;;;;12.83;100.00;101103.34;1784856;78;936658;-78
2020/12/22 06:44:24;;;;;;;2.30;0.50;;;;;;;12.84;100.00;101101.36;1780764;78;936671;-78
2020/12/22 06:46:56;;;;;;;1.17;0.50;;;;;;;12.82;100.00;101113.38;1754467;79;937079;-77
2020/12/22 06:49:47;;;;;;;3.60;0.70;;;;;;;12.80;100.00;101116.45;1766123;79;936928;-77
2020/12/22 06:52:35;;;;;;;3.57;0.70;;;;;;;12.79;100.00;101118.41;1769373;80;937098;-77
2020/12/22 06:55:07;;;;;;;1.63;0.70;;;;;;;12.78;100.00;101128.48;1756026;79;935567;-80
2020/12/22 06:57:48;;;;;;;0.93;0.60;;;;;;;12.77;100.00;101133.22;1762820;79;934759;-79
2020/12/22 07:00:38;;;;;;;2.23;0.40;;;;;;;12.75;100.00;101141.02;1762771;79;936745;-79
2020/12/22 07:03:16;;;;;;;0.93;0.62;;;;;;;12.72;100.00;101141.62;1754501;79;936706;-79
2020/12/22 07:05:48;;;;;;;2.53;0.90;;;;;;;12.71;100.00;101147.47;1764631;79;934839;-79
2020/12/22 07:08:18;;;;;;;2.43;0.53;;;;;;;12.63;100.00;101152.28;1763105;80;936866;-78
2020/12/22 07:10:51;;;;;;;2.23;0.90;;;;;;;12.61;100.00;101153.99;1762785;79;934433;-83
2020/12/22 07:13:23;;;;;;;0.80;0.80;;;;;;;12.54;100.00;101160.99;1769247;79;936638;-81
2020/12/22 07:15:54;;;;;;;1.30;0.80;;;;;;;12.51;100.00;101165.20;1757607;80;936665;-79
2020/12/22 07:18:28;;;;;;;0.77;0.63;;;;;;;12.40;100.00;101171.99;1763270;79;936567;-80
2020/12/22 07:20:59;;;;;;;1.25;1.10;;;;;;;12.37;100.00;101173.94;1723491;80;940485;-78
2020/12/22 07:23:29;;;;;;;1.57;0.87;;;;;;;12.36;100.00;101177.03;1737934;81;936619;-79
2020/12/22 07:26:01;;;;;;;1.20;0.98;;;;;;;12.36;100.00;101175.09;1724870;80;936549;-78
2020/12/22 07:28:32;;;;;;;0.80;0.80;;;;;;;12.31;100.00;101176.50;1736528;80;936576;-77
2020/12/22 07:31:02;;;;;;;0.78;0.53;;;;;;;12.24;100.00;101180.16;1716930;80;936602;-78
2020/12/22 07:33:32;;;;;;;0.77;0.60;;;;;;;12.16;100.00;101180.77;1738509;81;936588;-77
2020/12/22 07:36:03;;;;;;;2.17;0.60;;;;;;;12.15;100.00;101178.54;1695587;81;936768;-80
2020/12/22 07:38:32;;;;;;;0.87;0.70;;;;;;;12.04;100.00;101196.98;1704230;82;936767;-78
2020/12/22 07:41:02;;;;;;;1.85;1.35;;;;;;;12.00;100.00;101197.30;1701294;83;936646;-79
2020/12/22 07:43:32;;;;;;;1.80;1.10;;;;;;;12.02;100.00;101205.65;1735539;80;936855;-79
2020/12/22 07:46:02;;;;;;;1.98;0.80;;;;;;;12.02;100.00;101216.79;1729475;81;935405;-81
2020/12/22 07:48:34;;;;;;;0.67;0.67;;;;;;;12.07;100.00;101221.47;1736847;80;936560;-81
2020/12/22 07:51:04;;;;;;;1.03;0.67;;;;;;;12.11;100.00;101223.39;1726783;80;936695;-82
2020/12/22 07:53:33;;;;;;;0.70;0.70;;;;;;;12.13;100.00;101223.13;1739735;80;936687;-80
2020/12/22 07:56:06;;;;;;;0.60;0.60;;;;;;;12.06;100.00;101228.18;1728459;81;936643;-80
2020/12/22 07:58:37;;;;;;;0.93;0.70;;;;;;;12.01;100.00;101237.94;1736299;81;936650;-81
2020/12/22 08:01:07;;;;;;;1.43;0.67;;;;;;;12.02;100.00;101241.84;1724228;80;936574;-80
2020/12/22 08:03:37;;;;;;;1.53;0.70;;;;;;;12.04;100.00;101249.34;1738181;80;934820;-80
2020/12/22 08:06:07;;;;;;;0.78;0.60;;;;;;;11.97;100.00;101247.98;1724535;80;936587;-81
2020/12/22 08:08:37;;;;;;;1.00;0.90;;;;;;;11.89;100.00;101252.75;1740590;80;934741;-80
2020/12/22 08:11:07;;;;;;;1.10;1.00;;;;;;;11.94;100.00;101259.70;1728967;81;936968;-81
2020/12/22 08:13:39;;;;;;;1.00;1.00;;;;;;;11.95;100.00;101259.95;1739363;81;934742;-82
2020/12/22 08:16:10;;;;;;;0.90;0.90;;;;;;;11.82;100.00;101260.00;1726774;80;941605;-80
2020/12/22 08:18:41;;;;;;;1.60;1.13;;;;;;;11.87;100.00;101269.73;1735018;80;934786;-80
2020/12/22 08:21:12;;;;;;;1.07;1.07;;;;;;;11.90;100.00;101271.09;1726414;80;936493;-80
2020/12/22 08:23:43;;;;;;;1.50;1.40;;;;;;;11.86;100.00;101275.84;1735424;80;934663;-79
2020/12/22 08:26:17;;;;;;;1.20;1.10;;;;;;;11.91;100.00;101276.39;1729751;81;936869;-79
2020/12/22 08:28:54;;;;;;;1.00;1.00;;;;;;;11.95;100.00;101286.40;1735606;80;934644;-79
2020/12/22 08:31:26;;;;;;;1.83;1.00;;;;;;;11.96;100.00;101288.91;1738005;80;936496;-80
2020/12/22 08:33:59;;;;;;;0.97;0.97;;;;;;;11.92;100.00;101286.42;1697738;81;944828;-79
2020/12/22 08:36:30;;;;;;;1.00;1.00;;;;;;;11.94;100.00;101291.13;1760798;79;936604;-80
2020/12/22 08:39:17;;;;;;;1.27;1.17;;;;;;;11.95;100.00;101291.41;1752003;79;936776;-80
2020/12/22 08:41:49;;;;;;;1.57;1.00;;;;;;;11.93;100.00;101290.04;1767476;79;934886;-82
2020/12/22 08:44:21;;;;;;;1.60;1.43;;;;;;;11.93;100.00;101299.78;1765704;79;936616;-81
2020/12/22 08:46:52;;;;;;;0.83;0.83;;;;;;;12.02;100.00;101305.88;1734173;80;934677;-81
2020/12/22 08:49:24;;;;;;;2.27;1.30;;;;;;;12.09;100.00;101304.17;1741228;81;936570;-83
2020/12/22 08:51:56;;;;;;;2.77;1.17;;;;;;;12.03;100.00;101303.91;1728367;81;936583;-82
2020/12/22 08:54:27;;;;;;;1.00;1.00;;;;;;;12.00;100.00;101303.09;1733483;80;936813;-81
2020/12/22 08:57:10;;;;;;;1.60;1.15;;;;;;;11.99;100.00;101311.16;1723813;80;936895;-81
2020/12/22 08:59:40;;;;;;;1.40;1.30;;;;;;;11.98;100.00;101313.70;1736368;81;934897;-81
2020/12/22 09:02:26;;;;;;;1.40;1.30;;;;;;;11.98;100.00;101319.27;1728209;80;936519;-82
2020/12/22 09:04:56;;;;;;;1.97;1.20;;;;;;;11.97;100.00;101323.16;1724054;81;936671;-81
2020/12/22 09:07:27;;;;;;;1.30;1.20;;;;;;;11.97;100.00;101326.78;1737986;81;936792;-80
2020/12/22 09:10:06;;;;;;;1.82;1.02;;;;;;;11.94;100.00;101331.49;1719926;80;936594;-80
2020/12/22 09:12:36;;;;;;;1.20;1.10;;;;;;;11.92;100.00;101328.17;1741156;81;936552;-81
2020/12/22 09:15:08;;;;;;;1.47;1.37;;;;;;;11.84;100.00;101329.59;1722642;80;936632;-81
2020/12/22 09:17:38;;;;;;;1.37;1.20;;;;;;;11.75;100.00;101334.62;1739205;81;934844;-81
2020/12/22 09:20:09;;;;;;;1.72;1.40;;;;;;;11.54;100.00;101346.31;1729765;81;936620;-81
2020/12/22 09:22:39;;;;;;;1.20;1.10;;;;;;;11.43;100.00;101344.08;1733338;80;934794;-80
2020/12/22 09:25:09;;;;;;;1.47;1.37;;;;;;;11.47;100.00;101348.52;1723679;81;936660;-81
2020/12/22 09:27:41;;;;;;;2.37;1.73;;;;;;;11.48;100.00;101356.31;1736622;81;934668;-81
2020/12/22 09:30:13;;;;;;;1.60;1.10;;;;;;;11.49;100.00;101361.61;1728644;80;936781;-81
2020/12/22 09:32:46;;;;;;;1.10;1.00;;;;;;;11.49;100.00;101370.50;1732740;80;934770;-80
2020/12/22 09:35:15;;;;;;;2.40;1.20;;;;;;;11.44;100.00;101369.95;1725100;80;936649;-80
2020/12/22 09:37:46;;;;;;;2.37;1.90;;;;;;;11.54;100.00;101371.90;1733572;80;934756;-80
2020/12/22 09:40:16;;;;;;;3.20;2.53;;;;;;;11.60;100.00;101384.67;1740961;80;936545;-80
2020/12/22 09:42:46;;;;;;;2.35;2.12;;;;;;;11.57;100.00;101391.64;1739708;80;934761;-80
2020/12/22 09:45:15;;;;;;;3.27;2.97;;;;;;;11.56;100.00;101396.92;1716850;80;936609;-80
2020/12/22 09:47:45;;;;;;;4.60;3.30;;;;;;;11.59;100.00;101401.95;1735073;80;934744;-81
2020/12/22 09:50:17;;;;;;;2.60;2.40;;;;;;;11.66;100.00;101407.23;1726654;80;936596;-80
2020/12/22 09:52:47;;;;;;;3.00;2.37;;;;;;;11.68;100.00;101408.61;1740806;80;935034;-80
2020/12/22 09:55:17;;;;;;;2.70;2.37;;;;;;;11.61;100.00;101416.41;1735596;80;936772;-80
2020/12/22 09:57:46;;;;;;;3.83;2.60;;;;;;;11.72;100.00;101415.90;1741225;81;934616;-80
2020/12/22 10:00:16;;;;;;;2.97;2.63;;;;;;;11.84;100.00;101410.88;1741098;81;936723;-80
2020/12/22 10:02:46;;;;;;;2.93;2.73;;;;;;;11.85;100.00;101414.75;1737045;80;934968;-80
2020/12/22 10:05:16;;;;;;;2.57;2.37;;;;;;;11.90;100.00;101415.30;1736101;80;936702;-78
2020/12/22 10:07:46;;;;;;;3.90;2.87;;;;;;;11.96;100.00;101423.09;1738389;80;934857;-80
2020/12/22 10:10:16;;;;;;;3.23;2.93;;;;;;;11.91;100.00;101427.27;1723072;81;964002;-79
2020/12/22 10:12:45;;;;;;;2.87;2.43;;;;;;;11.96;100.00;101439.80;1735067;80;934712;-79
2020/12/22 10:15:16;;;;;;;3.10;2.80;;;;;;;12.05;100.00;101438.96;1722270;80;936693;-80
2020/12/22 10:17:46;;;;;;;3.90;2.90;;;;;;;12.02;100.00;101437.30;1738425;81;934713;-79
2020/12/22 10:20:15;;;;;;;4.33;3.13;;;;;;;12.08;100.00;101434.77;1726152;80;936679;-80
2020/12/22 10:22:45;;;;;;;4.10;3.70;;;;;;;12.07;100.00;101430.31;1735786;81;934707;-78
2020/12/22 10:25:15;;;;;;;3.97;3.60;;;;;;;12.04;100.00;101437.84;1729639;81;936701;-78
2020/12/22 10:27:47;;;;;;;4.80;3.87;;;;;;;12.11;100.00;101439.21;1737293;80;935213;-77
2020/12/22 10:30:17;;;;;;;3.47;2.93;;;;;;;12.13;100.00;101434.77;1738569;81;936679;-77
2020/12/22 10:32:48;;;;;;;2.60;2.40;;;;;;;12.25;100.00;101431.95;1731999;80;935098;-78
2020/12/22 10:35:18;;;;;;;2.73;2.47;;;;;;;12.30;100.00;101431.11;1738149;80;936777;-78
2020/12/22 10:37:48;;;;;;;2.53;2.33;;;;;;;12.29;100.00;101423.86;1741646;81;934649;-78
2020/12/22 10:40:18;;;;;;;2.93;2.30;;;;;;;12.35;100.00;101416.33;1739724;80;936889;-77
2020/12/22 10:42:48;;;;;;;2.60;2.30;;;;;;;12.31;100.00;101414.67;1739664;81;934798;-77
2020/12/22 10:45:19;;;;;;;2.37;2.17;;;;;;;12.32;100.00;101416.35;1741270;81;936739;-77
2020/12/22 10:47:48;;;;;;;3.23;2.30;;;;;;;12.38;100.00;101408.80;1741191;80;934676;-77
2020/12/22 10:50:18;;;;;;;4.33;2.50;;;;;;;12.45;100.00;101414.33;1737256;80;936622;-77
2020/12/22 10:52:48;;;;;;;2.33;2.13;;;;;;;12.44;100.00;101416.87;1737659;80;934938;-77
2020/12/22 10:55:19;;;;;;;3.27;2.20;;;;;;;12.48;100.00;101429.66;1741106;81;936695;-77
2020/12/22 10:57:49;;;;;;;2.97;2.07;;;;;;;12.46;100.00;101441.08;1738291;80;934737;-78
2020/12/22 11:00:19;;;;;;;2.40;1.90;;;;;;;12.57;100.00;101439.11;1736594;80;936634;-77
2020/12/22 11:02:52;;;;;;;2.30;2.03;;;;;;;12.51;100.00;101441.62;1741333;81;934846;-77
2020/12/22 11:08:09;;;;;;;3.03;2.27;;;;;;;12.58;100.00;101441.59;1726903;80;936536;-77
2020/12/22 11:10:41;;;;;;;3.10;2.80;;;;;;;12.57;100.00;101436.33;1740454;81;934781;-78
2020/12/22 11:13:10;;;;;;;2.57;2.27;;;;;;;12.63;100.00;101445.76;1730308;81;936630;-77
2020/12/22 11:15:40;;;;;;;2.40;2.20;;;;;;;12.67;100.00;101446.86;1741966;81;933608;-78
2020/12/22 11:18:10;;;;;;;3.43;2.67;;;;;;;12.71;100.00;101440.15;1730382;81;936560;-77
2020/12/22 11:20:40;;;;;;;3.40;3.10;;;;;;;12.62;100.00;101427.36;1740765;80;934753;-78
2020/12/22 11:23:11;;;;;;;2.67;2.30;;;;;;;12.65;100.00;101427.38;1722935;80;936749;-78
2020/12/22 11:25:41;;;;;;;3.83;2.47;;;;;;;12.70;100.00;101412.86;1738015;80;934717;-78
2020/12/22 11:28:10;;;;;;;4.17;2.90;;;;;;;12.76;100.00;101410.86;1730148;81;936665;-78
2020/12/22 11:30:40;;;;;;;3.40;3.10;;;;;;;12.84;100.00;101410.81;1740415;81;934754;-78